sensor_id;sensor_type;location;lat;lon;timestamp;P1;durP1;ratioP1;P2;durP2;ratioP2
18651;SDS011;9455;54.302;10.124;2022-12-18T00:02:13;27.13;;;12.57;;
18651;SDS011;9455;54.302;10.124;2022-12-18T00:04:40;23.97;;;11.97;;
18651;SDS011;9455;54.302;10.124;2022-12-18T00:07:07;24.30;;;11.60;;
18651;SDS011;9455;54.302;10.124;2022-12-18T00:09:33;27.97;;;11.33;;
18651;SDS011;9455;54.302;10.124;2022-12-18T00:12:00;35.97;;;12.90;;
18651;SDS011;9455;54.302;10.124;2022-12-18T00:14:27;23.47;;;11.63;;
18651;SDS011;9455;54.302;10.124;2022-12-18T00:16:55;28.10;;;11.97;;
18651;SDS011;9455;54.302;10.124;2022-12-18T00:19:23;23.53;;;10.80;;
18651;SDS011;9455;54.302;10.124;2022-12-18T00:21:50;23.73;;;10.97;;
18651;SDS011;9455;54.302;10.124;2022-12-18T00:24:16;25.47;;;11.07;;
18651;SDS011;9455;54.302;10.124;2022-12-18T00:26:43;25.20;;;10.87;;
18651;SDS011;9455;54.302;10.124;2022-12-18T00:29:11;26.60;;;11.13;;
18651;SDS011;9455;54.302;10.124;2022-12-18T00:31:39;23.23;;;10.53;;
18651;SDS011;9455;54.302;10.124;2022-12-18T00:34:08;24.97;;;11.47;;
18651;SDS011;9455;54.302;10.124;2022-12-18T00:36:36;22.67;;;11.30;;
18651;SDS011;9455;54.302;10.124;2022-12-18T00:39:03;21.83;;;12.13;;
18651;SDS011;9455;54.302;10.124;2022-12-18T00:41:31;23.97;;;11.57;;
18651;SDS011;9455;54.302;10.124;2022-12-18T00:44:16;22.67;;;11.13;;
18651;SDS011;9455;54.302;10.124;2022-12-18T00:46:43;19.17;;;10.57;;
18651;SDS011;9455;54.302;10.124;2022-12-18T00:49:15;23.97;;;10.90;;
18651;SDS011;9455;54.302;10.124;2022-12-18T00:51:43;29.13;;;11.63;;
18651;SDS011;9455;54.302;10.124;2022-12-18T00:54:10;26.23;;;11.10;;
18651;SDS011;9455;54.302;10.124;2022-12-18T00:56:37;22.17;;;11.13;;
18651;SDS011;9455;54.302;10.124;2022-12-18T00:59:04;20.73;;;10.50;;
18651;SDS011;9455;54.302;10.124;2022-12-18T01:01:31;28.33;;;12.27;;
18651;SDS011;9455;54.302;10.124;2022-12-18T01:03:59;20.80;;;10.67;;
18651;SDS011;9455;54.302;10.124;2022-12-18T01:06:27;22.63;;;11.03;;
18651;SDS011;9455;54.302;10.124;2022-12-18T01:08:54;26.67;;;10.43;;
18651;SDS011;9455;54.302;10.124;2022-12-18T01:11:22;20.83;;;10.07;;
18651;SDS011;9455;54.302;10.124;2022-12-18T01:13:49;28.63;;;12.00;;
18651;SDS011;9455;54.302;10.124;2022-12-18T01:16:17;26.87;;;11.67;;
18651;SDS011;9455;54.302;10.124;2022-12-18T01:18:44;25.80;;;10.90;;
18651;SDS011;9455;54.302;10.124;2022-12-18T01:21:12;21.37;;;10.73;;
18651;SDS011;9455;54.302;10.124;2022-12-18T01:23:50;21.30;;;9.77;;
18651;SDS011;9455;54.302;10.124;2022-12-18T01:26:17;32.13;;;10.80;;
18651;SDS011;9455;54.302;10.124;2022-12-18T01:28:44;25.47;;;11.10;;
18651;SDS011;9455;54.302;10.124;2022-12-18T01:31:11;27.00;;;10.47;;
18651;SDS011;9455;54.302;10.124;2022-12-18T01:33:39;26.37;;;10.40;;
18651;SDS011;9455;54.302;10.124;2022-12-18T01:36:06;22.07;;;10.13;;
18651;SDS011;9455;54.302;10.124;2022-12-18T01:38:33;20.43;;;10.50;;
18651;SDS011;9455;54.302;10.124;2022-12-18T01:41:01;21.73;;;10.57;;
18651;SDS011;9455;54.302;10.124;2022-12-18T01:43:41;23.63;;;10.40;;
18651;SDS011;9455;54.302;10.124;2022-12-18T01:46:13;19.53;;;10.30;;
18651;SDS011;9455;54.302;10.124;2022-12-18T01:48:40;22.90;;;9.97;;
18651;SDS011;9455;54.302;10.124;2022-12-18T01:51:09;22.67;;;11.03;;
18651;SDS011;9455;54.302;10.124;2022-12-18T01:53:37;17.03;;;9.50;;
18651;SDS011;9455;54.302;10.124;2022-12-18T01:56:07;19.83;;;9.50;;
18651;SDS011;9455;54.302;10.124;2022-12-18T01:58:39;24.93;;;10.97;;
18651;SDS011;9455;54.302;10.124;2022-12-18T02:01:13;19.80;;;10.17;;
18651;SDS011;9455;54.302;10.124;2022-12-18T02:03:40;21.43;;;10.27;;
18651;SDS011;9455;54.302;10.124;2022-12-18T02:06:09;21.00;;;10.57;;
18651;SDS011;9455;54.302;10.124;2022-12-18T02:08:43;23.20;;;10.33;;
18651;SDS011;9455;54.302;10.124;2022-12-18T02:11:29;21.57;;;9.13;;
18651;SDS011;9455;54.302;10.124;2022-12-18T02:14:07;25.03;;;10.27;;
18651;SDS011;9455;54.302;10.124;2022-12-18T02:16:42;25.37;;;10.27;;
18651;SDS011;9455;54.302;10.124;2022-12-18T02:19:16;22.73;;;9.67;;
18651;SDS011;9455;54.302;10.124;2022-12-18T02:21:55;32.10;;;10.43;;
18651;SDS011;9455;54.302;10.124;2022-12-18T02:24:33;25.93;;;11.13;;
18651;SDS011;9455;54.302;10.124;2022-12-18T02:27:09;22.63;;;9.37;;
18651;SDS011;9455;54.302;10.124;2022-12-18T02:29:38;20.17;;;9.47;;
18651;SDS011;9455;54.302;10.124;2022-12-18T02:32:09;21.07;;;9.93;;
18651;SDS011;9455;54.302;10.124;2022-12-18T02:34:40;27.03;;;9.70;;
18651;SDS011;9455;54.302;10.124;2022-12-18T02:37:10;23.43;;;9.97;;
18651;SDS011;9455;54.302;10.124;2022-12-18T02:39:42;24.87;;;10.73;;
18651;SDS011;9455;54.302;10.124;2022-12-18T02:42:12;20.13;;;9.07;;
18651;SDS011;9455;54.302;10.124;2022-12-18T02:44:42;19.93;;;9.87;;
18651;SDS011;9455;54.302;10.124;2022-12-18T02:47:10;24.20;;;9.73;;
18651;SDS011;9455;54.302;10.124;2022-12-18T02:49:40;18.77;;;10.63;;
18651;SDS011;9455;54.302;10.124;2022-12-18T02:52:17;28.60;;;10.73;;
18651;SDS011;9455;54.302;10.124;2022-12-18T02:54:56;23.03;;;9.57;;
18651;SDS011;9455;54.302;10.124;2022-12-18T02:57:30;23.73;;;9.57;;
18651;SDS011;9455;54.302;10.124;2022-12-18T03:00:03;23.67;;;10.27;;
18651;SDS011;9455;54.302;10.124;2022-12-18T03:02:35;26.13;;;10.00;;
18651;SDS011;9455;54.302;10.124;2022-12-18T03:05:10;20.87;;;9.90;;
18651;SDS011;9455;54.302;10.124;2022-12-18T03:07:42;20.50;;;10.73;;
18651;SDS011;9455;54.302;10.124;2022-12-18T03:10:14;25.90;;;10.37;;
18651;SDS011;9455;54.302;10.124;2022-12-18T03:12:47;22.40;;;10.53;;
18651;SDS011;9455;54.302;10.124;2022-12-18T03:15:19;19.50;;;9.83;;
18651;SDS011;9455;54.302;10.124;2022-12-18T03:17:51;21.37;;;9.37;;
18651;SDS011;9455;54.302;10.124;2022-12-18T03:20:23;19.47;;;9.57;;
18651;SDS011;9455;54.302;10.124;2022-12-18T03:22:53;25.13;;;10.03;;
18651;SDS011;9455;54.302;10.124;2022-12-18T03:25:25;21.97;;;9.37;;
18651;SDS011;9455;54.302;10.124;2022-12-18T03:27:55;19.80;;;9.57;;
18651;SDS011;9455;54.302;10.124;2022-12-18T03:30:25;21.43;;;9.03;;
18651;SDS011;9455;54.302;10.124;2022-12-18T03:32:56;24.93;;;10.07;;
18651;SDS011;9455;54.302;10.124;2022-12-18T03:35:30;23.70;;;9.50;;
18651;SDS011;9455;54.302;10.124;2022-12-18T03:38:03;16.50;;;8.50;;
18651;SDS011;9455;54.302;10.124;2022-12-18T03:40:31;18.57;;;9.17;;
18651;SDS011;9455;54.302;10.124;2022-12-18T03:43:07;18.77;;;9.37;;
18651;SDS011;9455;54.302;10.124;2022-12-18T03:45:40;21.17;;;9.40;;
18651;SDS011;9455;54.302;10.124;2022-12-18T03:48:16;22.27;;;10.13;;
18651;SDS011;9455;54.302;10.124;2022-12-18T03:50:53;21.63;;;8.80;;
18651;SDS011;9455;54.302;10.124;2022-12-18T03:53:25;19.83;;;9.47;;
18651;SDS011;9455;54.302;10.124;2022-12-18T03:56:01;19.53;;;9.23;;
18651;SDS011;9455;54.302;10.124;2022-12-18T03:58:31;23.77;;;9.00;;
18651;SDS011;9455;54.302;10.124;2022-12-18T04:01:02;18.13;;;9.10;;
18651;SDS011;9455;54.302;10.124;2022-12-18T04:03:35;18.30;;;8.67;;
18651;SDS011;9455;54.302;10.124;2022-12-18T04:06:02;18.00;;;9.10;;
18651;SDS011;9455;54.302;10.124;2022-12-18T04:08:30;21.87;;;9.43;;
18651;SDS011;9455;54.302;10.124;2022-12-18T04:10:57;14.87;;;8.50;;
18651;SDS011;9455;54.302;10.124;2022-12-18T04:13:23;18.87;;;8.97;;
18651;SDS011;9455;54.302;10.124;2022-12-18T04:15:52;23.07;;;9.83;;
18651;SDS011;9455;54.302;10.124;2022-12-18T04:18:19;18.80;;;9.33;;
18651;SDS011;9455;54.302;10.124;2022-12-18T04:20:45;17.70;;;9.30;;
18651;SDS011;9455;54.302;10.124;2022-12-18T04:23:12;21.07;;;8.67;;
18651;SDS011;9455;54.302;10.124;2022-12-18T04:25:39;19.33;;;9.10;;
18651;SDS011;9455;54.302;10.124;2022-12-18T04:28:05;20.13;;;8.77;;
18651;SDS011;9455;54.302;10.124;2022-12-18T04:30:32;19.37;;;9.23;;
18651;SDS011;9455;54.302;10.124;2022-12-18T04:33:00;16.90;;;8.00;;
18651;SDS011;9455;54.302;10.124;2022-12-18T04:35:27;17.20;;;8.57;;
18651;SDS011;9455;54.302;10.124;2022-12-18T04:37:53;23.67;;;9.40;;
18651;SDS011;9455;54.302;10.124;2022-12-18T04:40:20;18.33;;;9.70;;
18651;SDS011;9455;54.302;10.124;2022-12-18T04:42:46;17.60;;;8.67;;
18651;SDS011;9455;54.302;10.124;2022-12-18T04:45:13;15.83;;;8.07;;
18651;SDS011;9455;54.302;10.124;2022-12-18T04:47:39;17.53;;;8.70;;
18651;SDS011;9455;54.302;10.124;2022-12-18T04:50:08;16.70;;;8.97;;
18651;SDS011;9455;54.302;10.124;2022-12-18T04:52:34;18.70;;;9.13;;
18651;SDS011;9455;54.302;10.124;2022-12-18T04:55:01;17.20;;;8.57;;
18651;SDS011;9455;54.302;10.124;2022-12-18T04:57:28;18.13;;;8.43;;
18651;SDS011;9455;54.302;10.124;2022-12-18T04:59:54;15.63;;;8.00;;
18651;SDS011;9455;54.302;10.124;2022-12-18T05:02:21;19.07;;;9.03;;
18651;SDS011;9455;54.302;10.124;2022-12-18T05:04:48;15.80;;;8.60;;
18651;SDS011;9455;54.302;10.124;2022-12-18T05:07:16;23.67;;;9.00;;
18651;SDS011;9455;54.302;10.124;2022-12-18T05:09:42;19.23;;;8.47;;
18651;SDS011;9455;54.302;10.124;2022-12-18T05:12:09;20.53;;;9.53;;
18651;SDS011;9455;54.302;10.124;2022-12-18T05:14:35;18.87;;;8.97;;
18651;SDS011;9455;54.302;10.124;2022-12-18T05:17:02;18.70;;;8.40;;
18651;SDS011;9455;54.302;10.124;2022-12-18T05:19:29;21.87;;;8.80;;
18651;SDS011;9455;54.302;10.124;2022-12-18T05:21:55;19.50;;;9.10;;
18651;SDS011;9455;54.302;10.124;2022-12-18T05:24:23;20.57;;;9.23;;
18651;SDS011;9455;54.302;10.124;2022-12-18T05:26:50;17.20;;;7.63;;
18651;SDS011;9455;54.302;10.124;2022-12-18T05:29:17;16.77;;;8.43;;
18651;SDS011;9455;54.302;10.124;2022-12-18T05:31:43;17.93;;;8.43;;
18651;SDS011;9455;54.302;10.124;2022-12-18T05:34:10;20.20;;;8.57;;
18651;SDS011;9455;54.302;10.124;2022-12-18T05:36:37;17.93;;;8.23;;
18651;SDS011;9455;54.302;10.124;2022-12-18T05:39:03;23.60;;;8.47;;
18651;SDS011;9455;54.302;10.124;2022-12-18T05:41:31;20.83;;;10.23;;
18651;SDS011;9455;54.302;10.124;2022-12-18T05:43:58;18.20;;;9.37;;
18651;SDS011;9455;54.302;10.124;2022-12-18T05:46:25;20.83;;;8.93;;
18651;SDS011;9455;54.302;10.124;2022-12-18T05:48:52;19.77;;;8.97;;
18651;SDS011;9455;54.302;10.124;2022-12-18T05:51:20;17.23;;;7.47;;
18651;SDS011;9455;54.302;10.124;2022-12-18T05:53:47;20.23;;;8.00;;
18651;SDS011;9455;54.302;10.124;2022-12-18T05:56:17;14.43;;;7.70;;
18651;SDS011;9455;54.302;10.124;2022-12-18T05:58:47;15.97;;;8.20;;
18651;SDS011;9455;54.302;10.124;2022-12-18T06:01:17;17.73;;;8.03;;
18651;SDS011;9455;54.302;10.124;2022-12-18T06:03:46;18.87;;;8.37;;
18651;SDS011;9455;54.302;10.124;2022-12-18T06:06:13;15.33;;;7.20;;
18651;SDS011;9455;54.302;10.124;2022-12-18T06:08:41;15.67;;;8.10;;
18651;SDS011;9455;54.302;10.124;2022-12-18T06:11:07;16.60;;;7.60;;
18651;SDS011;9455;54.302;10.124;2022-12-18T06:13:34;13.60;;;7.50;;
18651;SDS011;9455;54.302;10.124;2022-12-18T06:16:03;16.90;;;7.73;;
18651;SDS011;9455;54.302;10.124;2022-12-18T06:18:30;14.70;;;8.27;;
18651;SDS011;9455;54.302;10.124;2022-12-18T06:20:57;16.80;;;7.77;;
18651;SDS011;9455;54.302;10.124;2022-12-18T06:23:25;16.50;;;7.43;;
18651;SDS011;9455;54.302;10.124;2022-12-18T06:25:52;11.90;;;7.30;;
18651;SDS011;9455;54.302;10.124;2022-12-18T06:28:19;13.13;;;7.57;;
18651;SDS011;9455;54.302;10.124;2022-12-18T06:30:46;20.23;;;9.37;;
18651;SDS011;9455;54.302;10.124;2022-12-18T06:33:15;17.03;;;8.30;;
18651;SDS011;9455;54.302;10.124;2022-12-18T06:35:42;15.93;;;7.53;;
18651;SDS011;9455;54.302;10.124;2022-12-18T06:38:08;19.33;;;8.10;;
18651;SDS011;9455;54.302;10.124;2022-12-18T06:40:36;15.50;;;7.33;;
18651;SDS011;9455;54.302;10.124;2022-12-18T06:43:04;17.13;;;8.30;;
18651;SDS011;9455;54.302;10.124;2022-12-18T06:45:30;15.17;;;7.93;;
18651;SDS011;9455;54.302;10.124;2022-12-18T06:47:57;13.47;;;7.70;;
18651;SDS011;9455;54.302;10.124;2022-12-18T06:50:25;15.70;;;8.63;;
18651;SDS011;9455;54.302;10.124;2022-12-18T06:52:52;16.73;;;8.03;;
18651;SDS011;9455;54.302;10.124;2022-12-18T06:55:18;15.33;;;8.47;;
18651;SDS011;9455;54.302;10.124;2022-12-18T06:57:45;16.40;;;8.57;;
18651;SDS011;9455;54.302;10.124;2022-12-18T07:00:12;20.20;;;8.23;;
18651;SDS011;9455;54.302;10.124;2022-12-18T07:02:39;16.23;;;8.13;;
18651;SDS011;9455;54.302;10.124;2022-12-18T07:05:06;21.10;;;8.73;;
18651;SDS011;9455;54.302;10.124;2022-12-18T07:07:34;15.60;;;8.73;;
18651;SDS011;9455;54.302;10.124;2022-12-18T07:10:01;18.73;;;8.47;;
18651;SDS011;9455;54.302;10.124;2022-12-18T07:12:28;14.10;;;8.13;;
18651;SDS011;9455;54.302;10.124;2022-12-18T07:14:54;22.40;;;8.63;;
18651;SDS011;9455;54.302;10.124;2022-12-18T07:17:21;17.33;;;8.57;;
18651;SDS011;9455;54.302;10.124;2022-12-18T07:19:47;16.17;;;7.73;;
18651;SDS011;9455;54.302;10.124;2022-12-18T07:22:14;15.43;;;7.77;;
18651;SDS011;9455;54.302;10.124;2022-12-18T07:24:42;12.97;;;7.77;;
18651;SDS011;9455;54.302;10.124;2022-12-18T07:27:08;17.23;;;7.60;;
18651;SDS011;9455;54.302;10.124;2022-12-18T07:29:35;14.73;;;7.23;;
18651;SDS011;9455;54.302;10.124;2022-12-18T07:32:02;18.87;;;8.20;;
18651;SDS011;9455;54.302;10.124;2022-12-18T07:34:28;16.87;;;7.87;;
18651;SDS011;9455;54.302;10.124;2022-12-18T07:36:55;15.13;;;7.57;;
18651;SDS011;9455;54.302;10.124;2022-12-18T07:39:21;15.83;;;7.67;;
18651;SDS011;9455;54.302;10.124;2022-12-18T07:41:49;14.53;;;7.53;;
18651;SDS011;9455;54.302;10.124;2022-12-18T07:44:30;14.10;;;7.00;;
18651;SDS011;9455;54.302;10.124;2022-12-18T07:46:56;13.77;;;7.17;;
18651;SDS011;9455;54.302;10.124;2022-12-18T07:49:23;13.70;;;7.23;;
18651;SDS011;9455;54.302;10.124;2022-12-18T07:51:49;11.80;;;6.10;;
18651;SDS011;9455;54.302;10.124;2022-12-18T07:54:16;13.80;;;7.13;;
18651;SDS011;9455;54.302;10.124;2022-12-18T07:56:43;14.70;;;6.10;;
18651;SDS011;9455;54.302;10.124;2022-12-18T07:59:11;13.03;;;6.60;;
18651;SDS011;9455;54.302;10.124;2022-12-18T08:01:37;10.53;;;6.03;;
18651;SDS011;9455;54.302;10.124;2022-12-18T08:04:04;12.30;;;6.77;;
18651;SDS011;9455;54.302;10.124;2022-12-18T08:06:31;13.63;;;7.40;;
18651;SDS011;9455;54.302;10.124;2022-12-18T08:08:57;20.60;;;7.60;;
18651;SDS011;9455;54.302;10.124;2022-12-18T08:11:24;8.57;;;6.30;;
18651;SDS011;9455;54.302;10.124;2022-12-18T08:13:52;13.70;;;7.20;;
18651;SDS011;9455;54.302;10.124;2022-12-18T08:16:21;14.33;;;7.53;;
18651;SDS011;9455;54.302;10.124;2022-12-18T08:18:48;11.50;;;6.77;;
18651;SDS011;9455;54.302;10.124;2022-12-18T08:21:15;10.67;;;6.50;;
18651;SDS011;9455;54.302;10.124;2022-12-18T08:23:43;17.73;;;7.93;;
18651;SDS011;9455;54.302;10.124;2022-12-18T08:26:11;12.43;;;6.73;;
18651;SDS011;9455;54.302;10.124;2022-12-18T08:28:37;23.67;;;8.60;;
18651;SDS011;9455;54.302;10.124;2022-12-18T08:31:04;14.30;;;7.80;;
18651;SDS011;9455;54.302;10.124;2022-12-18T08:33:33;17.17;;;7.40;;
18651;SDS011;9455;54.302;10.124;2022-12-18T08:36:01;15.80;;;7.97;;
18651;SDS011;9455;54.302;10.124;2022-12-18T08:38:28;12.47;;;7.00;;
18651;SDS011;9455;54.302;10.124;2022-12-18T08:40:57;17.23;;;7.30;;
18651;SDS011;9455;54.302;10.124;2022-12-18T08:43:25;14.70;;;7.47;;
18651;SDS011;9455;54.302;10.124;2022-12-18T08:46:09;17.93;;;7.40;;
18651;SDS011;9455;54.302;10.124;2022-12-18T08:48:38;12.77;;;6.70;;
18651;SDS011;9455;54.302;10.124;2022-12-18T08:51:04;14.37;;;7.23;;
18651;SDS011;9455;54.302;10.124;2022-12-18T08:53:31;15.37;;;7.37;;
18651;SDS011;9455;54.302;10.124;2022-12-18T08:55:58;19.03;;;7.43;;
18651;SDS011;9455;54.302;10.124;2022-12-18T08:58:24;15.83;;;8.20;;
18651;SDS011;9455;54.302;10.124;2022-12-18T09:00:51;18.43;;;8.10;;
18651;SDS011;9455;54.302;10.124;2022-12-18T09:03:18;20.43;;;7.63;;
18651;SDS011;9455;54.302;10.124;2022-12-18T09:05:48;18.17;;;8.33;;
18651;SDS011;9455;54.302;10.124;2022-12-18T09:08:15;18.57;;;7.57;;
18651;SDS011;9455;54.302;10.124;2022-12-18T09:10:41;14.37;;;7.80;;
18651;SDS011;9455;54.302;10.124;2022-12-18T09:13:09;17.73;;;8.23;;
18651;SDS011;9455;54.302;10.124;2022-12-18T09:15:39;15.83;;;7.93;;
18651;SDS011;9455;54.302;10.124;2022-12-18T09:18:06;17.37;;;7.77;;
18651;SDS011;9455;54.302;10.124;2022-12-18T09:20:33;21.50;;;7.67;;
18651;SDS011;9455;54.302;10.124;2022-12-18T09:23:02;15.90;;;8.73;;
18651;SDS011;9455;54.302;10.124;2022-12-18T09:25:28;12.53;;;7.97;;
18651;SDS011;9455;54.302;10.124;2022-12-18T09:27:58;20.20;;;8.90;;
18651;SDS011;9455;54.302;10.124;2022-12-18T09:30:24;13.67;;;7.47;;
18651;SDS011;9455;54.302;10.124;2022-12-18T09:32:54;19.57;;;9.27;;
18651;SDS011;9455;54.302;10.124;2022-12-18T09:35:21;17.37;;;8.63;;
18651;SDS011;9455;54.302;10.124;2022-12-18T09:37:47;19.70;;;9.53;;
18651;SDS011;9455;54.302;10.124;2022-12-18T09:40:16;22.07;;;9.30;;
18651;SDS011;9455;54.302;10.124;2022-12-18T09:42:46;18.63;;;8.70;;
18651;SDS011;9455;54.302;10.124;2022-12-18T09:45:18;18.37;;;8.87;;
18651;SDS011;9455;54.302;10.124;2022-12-18T09:47:46;16.53;;;8.43;;
18651;SDS011;9455;54.302;10.124;2022-12-18T09:50:21;22.63;;;8.47;;
18651;SDS011;9455;54.302;10.124;2022-12-18T09:52:54;19.20;;;8.90;;
18651;SDS011;9455;54.302;10.124;2022-12-18T09:55:27;20.73;;;8.70;;
18651;SDS011;9455;54.302;10.124;2022-12-18T09:57:59;21.13;;;8.50;;
18651;SDS011;9455;54.302;10.124;2022-12-18T10:00:30;16.20;;;8.13;;
18651;SDS011;9455;54.302;10.124;2022-12-18T10:02:58;16.77;;;7.80;;
18651;SDS011;9455;54.302;10.124;2022-12-18T10:05:29;15.93;;;8.23;;
18651;SDS011;9455;54.302;10.124;2022-12-18T10:08:05;20.07;;;8.80;;
18651;SDS011;9455;54.302;10.124;2022-12-18T10:10:39;19.73;;;8.37;;
18651;SDS011;9455;54.302;10.124;2022-12-18T10:13:13;19.50;;;8.50;;
18651;SDS011;9455;54.302;10.124;2022-12-18T10:15:48;14.90;;;8.23;;
18651;SDS011;9455;54.302;10.124;2022-12-18T10:18:26;15.00;;;7.97;;
18651;SDS011;9455;54.302;10.124;2022-12-18T10:21:03;18.70;;;9.13;;
18651;SDS011;9455;54.302;10.124;2022-12-18T10:23:37;19.43;;;9.63;;
18651;SDS011;9455;54.302;10.124;2022-12-18T10:26:14;18.33;;;9.07;;
18651;SDS011;9455;54.302;10.124;2022-12-18T10:28:41;21.07;;;8.07;;
18651;SDS011;9455;54.302;10.124;2022-12-18T10:31:12;19.50;;;9.17;;
18651;SDS011;9455;54.302;10.124;2022-12-18T10:33:42;21.53;;;9.63;;
18651;SDS011;9455;54.302;10.124;2022-12-18T10:36:09;18.00;;;7.93;;
18651;SDS011;9455;54.302;10.124;2022-12-18T10:38:35;15.80;;;8.10;;
18651;SDS011;9455;54.302;10.124;2022-12-18T10:41:03;15.17;;;8.40;;
18651;SDS011;9455;54.302;10.124;2022-12-18T10:43:35;20.70;;;9.33;;
18651;SDS011;9455;54.302;10.124;2022-12-18T10:46:13;16.37;;;8.13;;
18651;SDS011;9455;54.302;10.124;2022-12-18T10:48:48;19.03;;;8.40;;
18651;SDS011;9455;54.302;10.124;2022-12-18T10:51:19;17.97;;;9.37;;
18651;SDS011;9455;54.302;10.124;2022-12-18T10:53:51;16.37;;;8.03;;
18651;SDS011;9455;54.302;10.124;2022-12-18T10:56:21;21.83;;;9.30;;
18651;SDS011;9455;54.302;10.124;2022-12-18T10:58:56;15.77;;;9.10;;
18651;SDS011;9455;54.302;10.124;2022-12-18T11:01:25;23.13;;;8.93;;
18651;SDS011;9455;54.302;10.124;2022-12-18T11:03:59;20.50;;;9.13;;
18651;SDS011;9455;54.302;10.124;2022-12-18T11:06:28;24.70;;;9.53;;
18651;SDS011;9455;54.302;10.124;2022-12-18T11:08:58;20.93;;;9.73;;
18651;SDS011;9455;54.302;10.124;2022-12-18T11:11:26;18.23;;;9.43;;
18651;SDS011;9455;54.302;10.124;2022-12-18T11:16:43;17.53;;;8.60;;
18651;SDS011;9455;54.302;10.124;2022-12-18T11:19:13;21.17;;;8.63;;
18651;SDS011;9455;54.302;10.124;2022-12-18T11:21:47;25.90;;;10.40;;
18651;SDS011;9455;54.302;10.124;2022-12-18T11:24:25;14.47;;;7.90;;
18651;SDS011;9455;54.302;10.124;2022-12-18T11:26:55;16.10;;;9.30;;
18651;SDS011;9455;54.302;10.124;2022-12-18T11:29:24;18.77;;;9.27;;
18651;SDS011;9455;54.302;10.124;2022-12-18T11:32:10;16.53;;;8.50;;
18651;SDS011;9455;54.302;10.124;2022-12-18T11:35:03;23.73;;;9.17;;
18651;SDS011;9455;54.302;10.124;2022-12-18T11:37:37;20.50;;;9.80;;
18651;SDS011;9455;54.302;10.124;2022-12-18T11:40:09;18.00;;;9.07;;
18651;SDS011;9455;54.302;10.124;2022-12-18T11:42:41;21.40;;;8.87;;
18651;SDS011;9455;54.302;10.124;2022-12-18T11:45:23;20.13;;;8.57;;
18651;SDS011;9455;54.302;10.124;2022-12-18T11:47:55;22.23;;;10.20;;
18651;SDS011;9455;54.302;10.124;2022-12-18T11:50:25;21.37;;;9.50;;
18651;SDS011;9455;54.302;10.124;2022-12-18T11:52:55;15.63;;;8.57;;
18651;SDS011;9455;54.302;10.124;2022-12-18T11:55:30;21.40;;;9.63;;
18651;SDS011;9455;54.302;10.124;2022-12-18T11:58:05;18.67;;;9.83;;
18651;SDS011;9455;54.302;10.124;2022-12-18T12:00:39;17.57;;;8.60;;
18651;SDS011;9455;54.302;10.124;2022-12-18T12:03:18;20.03;;;8.33;;
18651;SDS011;9455;54.302;10.124;2022-12-18T12:05:56;20.10;;;7.83;;
18651;SDS011;9455;54.302;10.124;2022-12-18T12:08:32;24.10;;;9.17;;
18651;SDS011;9455;54.302;10.124;2022-12-18T12:11:11;18.33;;;9.07;;
18651;SDS011;9455;54.302;10.124;2022-12-18T12:13:49;19.40;;;9.20;;
18651;SDS011;9455;54.302;10.124;2022-12-18T12:16:28;18.17;;;8.93;;
18651;SDS011;9455;54.302;10.124;2022-12-18T12:19:05;19.33;;;8.67;;
18651;SDS011;9455;54.302;10.124;2022-12-18T12:21:43;16.87;;;8.43;;
18651;SDS011;9455;54.302;10.124;2022-12-18T12:24:22;27.70;;;10.17;;
18651;SDS011;9455;54.302;10.124;2022-12-18T12:27:01;18.83;;;9.03;;
18651;SDS011;9455;54.302;10.124;2022-12-18T12:29:43;23.80;;;9.73;;
18651;SDS011;9455;54.302;10.124;2022-12-18T12:32:33;20.57;;;8.43;;
18651;SDS011;9455;54.302;10.124;2022-12-18T12:35:12;15.53;;;8.33;;
18651;SDS011;9455;54.302;10.124;2022-12-18T12:37:51;20.57;;;8.73;;
18651;SDS011;9455;54.302;10.124;2022-12-18T12:40:26;16.07;;;8.50;;
18651;SDS011;9455;54.302;10.124;2022-12-18T12:42:58;17.33;;;8.77;;
18651;SDS011;9455;54.302;10.124;2022-12-18T12:45:40;18.03;;;8.63;;
18651;SDS011;9455;54.302;10.124;2022-12-18T12:48:13;22.00;;;9.33;;
18651;SDS011;9455;54.302;10.124;2022-12-18T12:50:44;17.30;;;8.77;;
18651;SDS011;9455;54.302;10.124;2022-12-18T12:53:16;16.20;;;8.67;;
18651;SDS011;9455;54.302;10.124;2022-12-18T12:55:50;23.13;;;9.53;;
18651;SDS011;9455;54.302;10.124;2022-12-18T12:58:19;20.73;;;9.53;;
18651;SDS011;9455;54.302;10.124;2022-12-18T13:00:58;18.17;;;9.03;;
18651;SDS011;9455;54.302;10.124;2022-12-18T13:03:34;19.33;;;8.47;;
18651;SDS011;9455;54.302;10.124;2022-12-18T13:06:12;20.17;;;9.27;;
18651;SDS011;9455;54.302;10.124;2022-12-18T13:11:12;20.63;;;9.47;;
18651;SDS011;9455;54.302;10.124;2022-12-18T13:14:19;19.60;;;9.57;;
18651;SDS011;9455;54.302;10.124;2022-12-18T13:16:47;20.73;;;9.47;;
18651;SDS011;9455;54.302;10.124;2022-12-18T13:19:21;26.27;;;9.23;;
18651;SDS011;9455;54.302;10.124;2022-12-18T13:21:52;19.47;;;8.80;;
18651;SDS011;9455;54.302;10.124;2022-12-18T13:24:22;17.73;;;9.20;;
18651;SDS011;9455;54.302;10.124;2022-12-18T13:26:51;22.27;;;10.20;;
18651;SDS011;9455;54.302;10.124;2022-12-18T13:37:57;28.03;;;10.20;;
18651;SDS011;9455;54.302;10.124;2022-12-18T13:40:53;41.57;;;16.73;;
18651;SDS011;9455;54.302;10.124;2022-12-18T13:43:30;54.67;;;21.73;;
18651;SDS011;9455;54.302;10.124;2022-12-18T13:46:04;78.93;;;29.63;;
18651;SDS011;9455;54.302;10.124;2022-12-18T13:48:47;60.40;;;25.67;;
18651;SDS011;9455;54.302;10.124;2022-12-18T13:51:20;65.07;;;27.07;;
18651;SDS011;9455;54.302;10.124;2022-12-18T13:53:49;55.30;;;24.07;;
18651;SDS011;9455;54.302;10.124;2022-12-18T13:56:22;48.97;;;19.63;;
18651;SDS011;9455;54.302;10.124;2022-12-18T13:59:03;51.37;;;20.73;;
18651;SDS011;9455;54.302;10.124;2022-12-18T14:01:44;48.63;;;17.97;;
18651;SDS011;9455;54.302;10.124;2022-12-18T14:04:16;38.40;;;16.37;;
18651;SDS011;9455;54.302;10.124;2022-12-18T14:06:45;47.73;;;17.33;;
18651;SDS011;9455;54.302;10.124;2022-12-18T14:09:15;41.67;;;16.60;;
18651;SDS011;9455;54.302;10.124;2022-12-18T14:11:48;43.37;;;16.67;;
18651;SDS011;9455;54.302;10.124;2022-12-18T14:14:16;38.87;;;14.90;;
18651;SDS011;9455;54.302;10.124;2022-12-18T14:16:44;43.27;;;14.87;;
18651;SDS011;9455;54.302;10.124;2022-12-18T14:19:12;43.73;;;15.30;;
18651;SDS011;9455;54.302;10.124;2022-12-18T14:21:46;38.97;;;12.67;;
18651;SDS011;9455;54.302;10.124;2022-12-18T14:24:18;32.87;;;13.07;;
18651;SDS011;9455;54.302;10.124;2022-12-18T14:26:46;42.03;;;15.57;;
18651;SDS011;9455;54.302;10.124;2022-12-18T14:29:19;30.00;;;12.30;;
18651;SDS011;9455;54.302;10.124;2022-12-18T14:32:09;32.50;;;12.17;;
18651;SDS011;9455;54.302;10.124;2022-12-18T14:34:49;30.33;;;10.97;;
18651;SDS011;9455;54.302;10.124;2022-12-18T14:37:24;28.90;;;11.63;;
18651;SDS011;9455;54.302;10.124;2022-12-18T14:39:55;34.20;;;12.63;;
18651;SDS011;9455;54.302;10.124;2022-12-18T14:42:26;31.50;;;11.47;;
18651;SDS011;9455;54.302;10.124;2022-12-18T14:45:42;30.93;;;12.87;;
18651;SDS011;9455;54.302;10.124;2022-12-18T14:48:23;37.60;;;13.10;;
18651;SDS011;9455;54.302;10.124;2022-12-18T14:51:17;26.63;;;10.90;;
18651;SDS011;9455;54.302;10.124;2022-12-18T14:53:57;36.77;;;13.80;;
18651;SDS011;9455;54.302;10.124;2022-12-18T14:56:44;32.33;;;12.13;;
18651;SDS011;9455;54.302;10.124;2022-12-18T14:59:21;30.30;;;12.50;;
18651;SDS011;9455;54.302;10.124;2022-12-18T15:01:56;35.10;;;12.33;;
18651;SDS011;9455;54.302;10.124;2022-12-18T15:04:30;38.10;;;12.97;;
18651;SDS011;9455;54.302;10.124;2022-12-18T15:07:04;34.83;;;13.47;;